Airfield :
LOGIN :

Register | Disclaimer

   EN    FR    IT 

 










Legend :    VFR   Marginal VFR   IFR   Intensive IFR   Very Intensive IFR
Visi :
Ceiling :
>= 8 km
>= 3000ft
5 to 8 km
1000 to 3000 ft
1500m to 5 km
500 to 1000 ft
800 to 1500m
200 to 500 ft
< 800m
< 200 ft
Symbols :   Thunderstorms  Fog  Heavy snow  Heavy precipitations  Wind > 20 kt
SIGMETs :     Misc.  Thunderstorms  Icing  Turbulence  Mountain Waves  Volcanic Ashes







- Airport Elevation : 20 ft
- IATA code : LSI
- Download approach charts


EGPB - Sumburgh

CURRENT METAR :
  • 170720Z 02006KT 0700 R27/1000 FG OVC001 13/13 Q1011 BECMG 3000 BR BKN004

EXPIRED METARs :
  • 170650Z 03006KT 0800 FG OVC001 13/13 Q1011 BECMG 3000 BR BKN004
  • 170620Z 03007KT 0600 FG VV/// 13/13 Q1011 BECMG 3000 BR BKN004
  • 170550Z 03006KT 0800 FG OVC001 13/12 Q1011 TEMPO 3000 BR BKN002
  • 170520Z 03006KT 5000 BR OVC002 13/12 Q1011
  • 170450Z AUTO 04006KT 9999 OVC003/// 13/12 Q1011

TAF AMD TAF EGPB
Valid from the 17 at 06:00 until the 17 at 15:00 UTC


170600Z 1706/1715 01004KT 9999 BKN006
TEMPO 1706/1709 0600 FG BKN001
TEMPO 1709/1715 5000 RA BKN004
PROB30
TEMPO 1710/1715 3000 +RA
No reported NOTAMs for that airfield.
1 SIGMET reported for the Scottish FIR (EGPX) :
 
Embedded thunderstorms
EGPX SIGMET 02 VALID 170600/171000 EGRR
EGPX SCOTTISH FIR EMBD TS FCST WI N5729 W00113 - N5814 W00050 - N5815 E00112 - N5612 E00132 - N5621 W00011 - N5729 W00113 TOP FL300 MOV N 20KT NC=



MET'MAP, your aeronautical weather chart ! - Copyright ORBIFLY December 2007 - Disclaimer

ORBIFLY MET'MAP TEAM :

Programming & Development : Alexandra Zaïnal
Concept & Development : Baudouin d'Aumeries
Co-Development & Prog : Marc-Olivier Méhu
Technical & hardware support : Manuel Goepfert

Contact : metmap@orbifly.com




SOURCES & CREDITS :

   NOAA